sensor_id;sensor_type;location;lat;lon;timestamp;temperature;humidity
16114;DHT22;8161;-33.910;151.156;2023-12-14T00:02:23;32.60;99.90
16114;DHT22;8161;-33.910;151.156;2023-12-14T00:04:50;33.20;99.90
16114;DHT22;8161;-33.910;151.156;2023-12-14T00:07:17;33.00;99.90
16114;DHT22;8161;-33.910;151.156;2023-12-14T00:12:12;33.60;99.90
16114;DHT22;8161;-33.910;151.156;2023-12-14T00:14:39;33.00;99.90
16114;DHT22;8161;-33.910;151.156;2023-12-14T00:17:06;33.30;99.90
16114;DHT22;8161;-33.910;151.156;2023-12-14T00:19:34;33.20;99.90
16114;DHT22;8161;-33.910;151.156;2023-12-14T00:22:01;34.00;99.90
16114;DHT22;8161;-33.910;151.156;2023-12-14T00:26:55;33.80;99.90
16114;DHT22;8161;-33.910;151.156;2023-12-14T00:36:44;34.00;99.90
16114;DHT22;8161;-33.910;151.156;2023-12-14T00:39:12;34.50;99.90
16114;DHT22;8161;-33.910;151.156;2023-12-14T00:44:06;34.50;99.90
16114;DHT22;8161;-33.910;151.156;2023-12-14T00:51:28;34.80;99.90
16114;DHT22;8161;-33.910;151.156;2023-12-14T00:53:56;34.60;99.90
16114;DHT22;8161;-33.910;151.156;2023-12-14T00:56:23;35.60;99.90
16114;DHT22;8161;-33.910;151.156;2023-12-14T00:58:50;35.30;99.90
16114;DHT22;8161;-33.910;151.156;2023-12-14T01:01:18;35.50;99.90
16114;DHT22;8161;-33.910;151.156;2023-12-14T01:03:45;35.80;99.90
16114;DHT22;8161;-33.910;151.156;2023-12-14T01:06:12;35.90;99.90
16114;DHT22;8161;-33.910;151.156;2023-12-14T01:08:40;35.70;99.90
16114;DHT22;8161;-33.910;151.156;2023-12-14T01:11:07;36.40;99.90
16114;DHT22;8161;-33.910;151.156;2023-12-14T01:13:34;36.50;99.90
16114;DHT22;8161;-33.910;151.156;2023-12-14T01:16:02;36.50;99.90
16114;DHT22;8161;-33.910;151.156;2023-12-14T01:18:29;36.20;99.90
16114;DHT22;8161;-33.910;151.156;2023-12-14T01:20:56;36.30;99.90
16114;DHT22;8161;-33.910;151.156;2023-12-14T01:23:23;36.40;99.90
16114;DHT22;8161;-33.910;151.156;2023-12-14T01:25:51;36.40;99.90
16114;DHT22;8161;-33.910;151.156;2023-12-14T01:28:18;36.90;99.90
16114;DHT22;8161;-33.910;151.156;2023-12-14T01:30:45;36.50;99.90
16114;DHT22;8161;-33.910;151.156;2023-12-14T01:33:13;36.90;99.90
16114;DHT22;8161;-33.910;151.156;2023-12-14T01:35:40;36.90;99.90
16114;DHT22;8161;-33.910;151.156;2023-12-14T01:38:07;37.40;99.90
16114;DHT22;8161;-33.910;151.156;2023-12-14T01:40:34;37.30;99.90
16114;DHT22;8161;-33.910;151.156;2023-12-14T01:43:11;36.70;99.90
16114;DHT22;8161;-33.910;151.156;2023-12-14T01:45:38;37.20;99.90
16114;DHT22;8161;-33.910;151.156;2023-12-14T01:48:07;37.30;99.90
16114;DHT22;8161;-33.910;151.156;2023-12-14T01:50:36;37.50;99.90
16114;DHT22;8161;-33.910;151.156;2023-12-14T01:53:04;36.60;99.90
16114;DHT22;8161;-33.910;151.156;2023-12-14T01:55:32;37.30;99.90
16114;DHT22;8161;-33.910;151.156;2023-12-14T01:57:59;37.20;99.90
16114;DHT22;8161;-33.910;151.156;2023-12-14T02:03:00;37.70;99.90
16114;DHT22;8161;-33.910;151.156;2023-12-14T02:05:28;37.90;99.90
16114;DHT22;8161;-33.910;151.156;2023-12-14T02:07:55;37.50;99.90
16114;DHT22;8161;-33.910;151.156;2023-12-14T02:10:23;37.90;99.90
16114;DHT22;8161;-33.910;151.156;2023-12-14T02:12:50;37.50;99.70
16114;DHT22;8161;-33.910;151.156;2023-12-14T02:15:18;37.30;99.90
16114;DHT22;8161;-33.910;151.156;2023-12-14T02:17:45;37.60;96.90
16114;DHT22;8161;-33.910;151.156;2023-12-14T02:20:12;38.10;99.40
16114;DHT22;8161;-33.910;151.156;2023-12-14T02:22:53;37.60;99.50
16114;DHT22;8161;-33.910;151.156;2023-12-14T02:25:22;37.20;97.30
16114;DHT22;8161;-33.910;151.156;2023-12-14T02:27:50;37.50;96.40
16114;DHT22;8161;-33.910;151.156;2023-12-14T02:30:18;38.30;93.90
16114;DHT22;8161;-33.910;151.156;2023-12-14T02:40:08;38.30;85.60
16114;DHT22;8161;-33.910;151.156;2023-12-14T02:45:03;38.00;78.40
16114;DHT22;8161;-33.910;151.156;2023-12-14T02:49:58;38.40;72.70
16114;DHT22;8161;-33.910;151.156;2023-12-14T02:52:25;38.60;72.40
16114;DHT22;8161;-33.910;151.156;2023-12-14T02:57:20;38.70;68.60
16114;DHT22;8161;-33.910;151.156;2023-12-14T02:59:47;39.50;69.70
16114;DHT22;8161;-33.910;151.156;2023-12-14T03:14:33;39.30;65.00
16114;DHT22;8161;-33.910;151.156;2023-12-14T03:24:21;40.30;62.90
16114;DHT22;8161;-33.910;151.156;2023-12-14T03:26:49;40.30;63.10
16114;DHT22;8161;-33.910;151.156;2023-12-14T03:29:18;41.10;63.50
16114;DHT22;8161;-33.910;151.156;2023-12-14T03:31:45;40.20;62.90
16114;DHT22;8161;-33.910;151.156;2023-12-14T03:36:39;40.10;60.90
16114;DHT22;8161;-33.910;151.156;2023-12-14T03:41:34;40.40;62.00
16114;DHT22;8161;-33.910;151.156;2023-12-14T03:44:01;40.50;62.20
16114;DHT22;8161;-33.910;151.156;2023-12-14T03:46:29;39.80;58.40
16114;DHT22;8161;-33.910;151.156;2023-12-14T03:48:56;40.20;61.70
16114;DHT22;8161;-33.910;151.156;2023-12-14T03:51:23;40.20;62.90
16114;DHT22;8161;-33.910;151.156;2023-12-14T03:56:18;40.20;59.80
16114;DHT22;8161;-33.910;151.156;2023-12-14T03:58:45;40.40;59.40
16114;DHT22;8161;-33.910;151.156;2023-12-14T04:03:47;39.90;56.90
16114;DHT22;8161;-33.910;151.156;2023-12-14T04:06:15;40.10;57.90
16114;DHT22;8161;-33.910;151.156;2023-12-14T04:11:10;40.70;58.10
16114;DHT22;8161;-33.910;151.156;2023-12-14T04:16:08;40.50;58.80
16114;DHT22;8161;-33.910;151.156;2023-12-14T04:18:38;40.20;57.60
16114;DHT22;8161;-33.910;151.156;2023-12-14T04:21:07;40.50;55.20
16114;DHT22;8161;-33.910;151.156;2023-12-14T04:26:01;41.10;55.50
16114;DHT22;8161;-33.910;151.156;2023-12-14T04:31:00;40.90;52.90
16114;DHT22;8161;-33.910;151.156;2023-12-14T04:33:27;40.80;52.40
16114;DHT22;8161;-33.910;151.156;2023-12-14T04:38:24;39.80;52.40
16114;DHT22;8161;-33.910;151.156;2023-12-14T04:48:13;40.40;53.00
16114;DHT22;8161;-33.910;151.156;2023-12-14T04:50:40;39.50;52.40
16114;DHT22;8161;-33.910;151.156;2023-12-14T04:53:08;39.30;53.10
16114;DHT22;8161;-33.910;151.156;2023-12-14T04:58:02;39.80;52.80
16114;DHT22;8161;-33.910;151.156;2023-12-14T05:00:29;39.90;52.30
16114;DHT22;8161;-33.910;151.156;2023-12-14T05:05:23;39.90;52.30
16114;DHT22;8161;-33.910;151.156;2023-12-14T05:07:51;40.00;52.20
16114;DHT22;8161;-33.910;151.156;2023-12-14T05:10:18;40.20;51.50
16114;DHT22;8161;-33.910;151.156;2023-12-14T05:12:45;40.40;50.70
16114;DHT22;8161;-33.910;151.156;2023-12-14T05:15:13;40.70;50.10
16114;DHT22;8161;-33.910;151.156;2023-12-14T05:17:40;41.10;50.90
16114;DHT22;8161;-33.910;151.156;2023-12-14T05:22:38;40.80;46.90
16114;DHT22;8161;-33.910;151.156;2023-12-14T05:25:05;40.80;51.20
16114;DHT22;8161;-33.910;151.156;2023-12-14T05:27:34;40.80;51.10
16114;DHT22;8161;-33.910;151.156;2023-12-14T05:32:30;41.20;50.90
16114;DHT22;8161;-33.910;151.156;2023-12-14T05:34:57;41.40;49.70
16114;DHT22;8161;-33.910;151.156;2023-12-14T05:37:26;41.10;49.10
16114;DHT22;8161;-33.910;151.156;2023-12-14T05:39:53;40.70;48.80
16114;DHT22;8161;-33.910;151.156;2023-12-14T05:44:48;40.20;49.80
16114;DHT22;8161;-33.910;151.156;2023-12-14T05:49:43;41.20;49.40
16114;DHT22;8161;-33.910;151.156;2023-12-14T05:54:38;41.50;47.70
16114;DHT22;8161;-33.910;151.156;2023-12-14T05:57:08;41.20;46.90
16114;DHT22;8161;-33.910;151.156;2023-12-14T05:59:39;41.20;47.90
16114;DHT22;8161;-33.910;151.156;2023-12-14T06:02:07;41.00;47.60
16114;DHT22;8161;-33.910;151.156;2023-12-14T06:04:34;40.80;48.40
16114;DHT22;8161;-33.910;151.156;2023-12-14T06:07:02;41.60;48.30
16114;DHT22;8161;-33.910;151.156;2023-12-14T06:09:29;41.20;48.50
16114;DHT22;8161;-33.910;151.156;2023-12-14T06:12:03;41.30;47.80
16114;DHT22;8161;-33.910;151.156;2023-12-14T06:14:31;40.60;47.60
16114;DHT22;8161;-33.910;151.156;2023-12-14T06:19:26;41.30;47.90
16114;DHT22;8161;-33.910;151.156;2023-12-14T06:21:53;41.10;47.50
16114;DHT22;8161;-33.910;151.156;2023-12-14T06:24:20;40.90;47.40
16114;DHT22;8161;-33.910;151.156;2023-12-14T06:26:49;41.00;49.50
16114;DHT22;8161;-33.910;151.156;2023-12-14T06:29:16;41.50;49.50
16114;DHT22;8161;-33.910;151.156;2023-12-14T06:31:45;41.70;49.80
16114;DHT22;8161;-33.910;151.156;2023-12-14T06:34:13;41.50;49.20
16114;DHT22;8161;-33.910;151.156;2023-12-14T06:41:38;40.90;46.70
16114;DHT22;8161;-33.910;151.156;2023-12-14T06:44:06;41.40;50.00
16114;DHT22;8161;-33.910;151.156;2023-12-14T06:46:35;41.00;47.40
16114;DHT22;8161;-33.910;151.156;2023-12-14T06:49:03;40.90;50.70
16114;DHT22;8161;-33.910;151.156;2023-12-14T06:53:58;39.90;50.20
16114;DHT22;8161;-33.910;151.156;2023-12-14T07:01:19;39.80;50.30
16114;DHT22;8161;-33.910;151.156;2023-12-14T07:03:47;40.10;51.00
16114;DHT22;8161;-33.910;151.156;2023-12-14T07:08:45;39.90;51.20
16114;DHT22;8161;-33.910;151.156;2023-12-14T07:18:38;36.50;48.60
16114;DHT22;8161;-33.910;151.156;2023-12-14T07:21:06;39.00;47.40
16114;DHT22;8161;-33.910;151.156;2023-12-14T07:30:55;38.40;51.80
16114;DHT22;8161;-33.910;151.156;2023-12-14T07:43:13;37.90;52.70
16114;DHT22;8161;-33.910;151.156;2023-12-14T07:45:40;38.10;52.70
16114;DHT22;8161;-33.910;151.156;2023-12-14T07:50:35;37.80;53.50
16114;DHT22;8161;-33.910;151.156;2023-12-14T07:53:02;38.00;52.60
16114;DHT22;8161;-33.910;151.156;2023-12-14T07:55:30;37.60;54.00
16114;DHT22;8161;-33.910;151.156;2023-12-14T08:05:25;37.20;53.50
16114;DHT22;8161;-33.910;151.156;2023-12-14T08:17:42;36.60;53.70
16114;DHT22;8161;-33.910;151.156;2023-12-14T08:44:54;35.90;55.40
16114;DHT22;8161;-33.910;151.156;2023-12-14T08:49:48;36.00;54.20
16114;DHT22;8161;-33.910;151.156;2023-12-14T08:52:16;35.40;52.40
16114;DHT22;8161;-33.910;151.156;2023-12-14T08:54:43;35.30;55.50
16114;DHT22;8161;-33.910;151.156;2023-12-14T08:57:11;35.20;57.30
16114;DHT22;8161;-33.910;151.156;2023-12-14T08:59:38;35.00;56.30
16114;DHT22;8161;-33.910;151.156;2023-12-14T09:04:33;35.00;57.10
16114;DHT22;8161;-33.910;151.156;2023-12-14T09:07:05;35.10;57.90
16114;DHT22;8161;-33.910;151.156;2023-12-14T09:09:32;34.90;57.50
16114;DHT22;8161;-33.910;151.156;2023-12-14T09:12:00;34.50;58.40
16114;DHT22;8161;-33.910;151.156;2023-12-14T09:14:27;34.60;58.70
16114;DHT22;8161;-33.910;151.156;2023-12-14T09:16:56;34.40;56.70
16114;DHT22;8161;-33.910;151.156;2023-12-14T09:19:23;34.70;59.40
16114;DHT22;8161;-33.910;151.156;2023-12-14T09:21:53;34.00;59.60
16114;DHT22;8161;-33.910;151.156;2023-12-14T09:26:47;34.00;60.60
16114;DHT22;8161;-33.910;151.156;2023-12-14T09:29:15;34.50;62.00
16114;DHT22;8161;-33.910;151.156;2023-12-14T09:31:43;33.80;84.10
16114;DHT22;8161;-33.910;151.156;2023-12-14T09:34:11;33.20;93.20
16114;DHT22;8161;-33.910;151.156;2023-12-14T09:36:42;32.90;99.90
16114;DHT22;8161;-33.910;151.156;2023-12-14T09:39:10;32.10;99.90
16114;DHT22;8161;-33.910;151.156;2023-12-14T09:41:38;32.20;99.90
16114;DHT22;8161;-33.910;151.156;2023-12-14T09:44:06;31.10;99.90
16114;DHT22;8161;-33.910;151.156;2023-12-14T09:46:37;30.90;99.90
16114;DHT22;8161;-33.910;151.156;2023-12-14T09:49:05;30.10;99.90
16114;DHT22;8161;-33.910;151.156;2023-12-14T09:51:33;29.80;99.90
16114;DHT22;8161;-33.910;151.156;2023-12-14T09:54:00;29.50;99.90
16114;DHT22;8161;-33.910;151.156;2023-12-14T09:56:28;29.20;99.90
16114;DHT22;8161;-33.910;151.156;2023-12-14T09:58:55;29.40;99.90
16114;DHT22;8161;-33.910;151.156;2023-12-14T10:01:28;28.90;99.90
16114;DHT22;8161;-33.910;151.156;2023-12-14T10:04:09;28.70;99.90
16114;DHT22;8161;-33.910;151.156;2023-12-14T10:06:38;28.80;99.90
16114;DHT22;8161;-33.910;151.156;2023-12-14T10:09:06;28.50;99.90
16114;DHT22;8161;-33.910;151.156;2023-12-14T10:11:40;27.80;99.90
16114;DHT22;8161;-33.910;151.156;2023-12-14T10:14:21;28.10;99.90
16114;DHT22;8161;-33.910;151.156;2023-12-14T10:16:50;27.90;99.90
16114;DHT22;8161;-33.910;151.156;2023-12-14T10:19:19;27.70;99.90
16114;DHT22;8161;-33.910;151.156;2023-12-14T10:21:52;27.80;99.90
16114;DHT22;8161;-33.910;151.156;2023-12-14T10:24:19;27.60;99.90
16114;DHT22;8161;-33.910;151.156;2023-12-14T10:26:47;27.50;99.90
16114;DHT22;8161;-33.910;151.156;2023-12-14T10:29:15;27.40;99.90
16114;DHT22;8161;-33.910;151.156;2023-12-14T10:31:43;27.40;99.90
16114;DHT22;8161;-33.910;151.156;2023-12-14T10:36:46;27.40;99.90
16114;DHT22;8161;-33.910;151.156;2023-12-14T10:41:44;27.10;99.90
16114;DHT22;8161;-33.910;151.156;2023-12-14T10:44:15;27.20;99.90
16114;DHT22;8161;-33.910;151.156;2023-12-14T10:46:45;27.10;99.90
16114;DHT22;8161;-33.910;151.156;2023-12-14T10:49:15;26.90;99.90
16114;DHT22;8161;-33.910;151.156;2023-12-14T10:51:42;26.80;99.90
16114;DHT22;8161;-33.910;151.156;2023-12-14T10:54:10;26.70;99.90
16114;DHT22;8161;-33.910;151.156;2023-12-14T11:01:33;26.50;99.90
16114;DHT22;8161;-33.910;151.156;2023-12-14T11:04:03;26.50;99.90
16114;DHT22;8161;-33.910;151.156;2023-12-14T11:06:38;26.30;99.90
16114;DHT22;8161;-33.910;151.156;2023-12-14T11:09:17;26.20;99.90
16114;DHT22;8161;-33.910;151.156;2023-12-14T11:14:26;25.90;99.90
16114;DHT22;8161;-33.910;151.156;2023-12-14T11:22:12;26.00;99.90
16114;DHT22;8161;-33.910;151.156;2023-12-14T11:27:25;25.90;99.90
16114;DHT22;8161;-33.910;151.156;2023-12-14T11:29:53;25.90;99.90
16114;DHT22;8161;-33.910;151.156;2023-12-14T11:32:21;25.90;99.90
16114;DHT22;8161;-33.910;151.156;2023-12-14T11:34:48;25.80;99.90
16114;DHT22;8161;-33.910;151.156;2023-12-14T11:39:43;25.20;99.90
16114;DHT22;8161;-33.910;151.156;2023-12-14T11:42:10;25.80;99.90
16114;DHT22;8161;-33.910;151.156;2023-12-14T11:44:38;25.80;99.90
16114;DHT22;8161;-33.910;151.156;2023-12-14T11:47:07;25.80;99.90
16114;DHT22;8161;-33.910;151.156;2023-12-14T11:49:35;25.70;99.90
16114;DHT22;8161;-33.910;151.156;2023-12-14T11:52:03;25.80;99.90
16114;DHT22;8161;-33.910;151.156;2023-12-14T11:54:31;26.00;99.90
16114;DHT22;8161;-33.910;151.156;2023-12-14T11:57:05;25.80;99.90
16114;DHT22;8161;-33.910;151.156;2023-12-14T11:59:35;25.70;99.90
16114;DHT22;8161;-33.910;151.156;2023-12-14T12:02:04;25.60;99.90
16114;DHT22;8161;-33.910;151.156;2023-12-14T12:04:31;25.60;99.90
16114;DHT22;8161;-33.910;151.156;2023-12-14T12:07:03;25.70;99.90
16114;DHT22;8161;-33.910;151.156;2023-12-14T12:09:46;25.90;99.90
16114;DHT22;8161;-33.910;151.156;2023-12-14T12:12:13;25.50;99.90
16114;DHT22;8161;-33.910;151.156;2023-12-14T12:14:41;25.20;99.90
16114;DHT22;8161;-33.910;151.156;2023-12-14T12:17:11;25.30;99.90
16114;DHT22;8161;-33.910;151.156;2023-12-14T12:19:42;25.40;99.90
16114;DHT22;8161;-33.910;151.156;2023-12-14T12:22:12;25.40;99.90
16114;DHT22;8161;-33.910;151.156;2023-12-14T12:29:35;25.30;99.90
16114;DHT22;8161;-33.910;151.156;2023-12-14T12:34:30;25.40;99.90
16114;DHT22;8161;-33.910;151.156;2023-12-14T12:36:57;25.20;99.90
16114;DHT22;8161;-33.910;151.156;2023-12-14T12:39:25;25.00;99.90
16114;DHT22;8161;-33.910;151.156;2023-12-14T12:41:58;25.40;99.90
16114;DHT22;8161;-33.910;151.156;2023-12-14T12:44:25;25.30;99.90
16114;DHT22;8161;-33.910;151.156;2023-12-14T12:46:52;25.10;99.90
16114;DHT22;8161;-33.910;151.156;2023-12-14T12:49:24;25.40;99.90
16114;DHT22;8161;-33.910;151.156;2023-12-14T12:51:51;25.40;99.90
16114;DHT22;8161;-33.910;151.156;2023-12-14T12:59:13;25.30;99.90
16114;DHT22;8161;-33.910;151.156;2023-12-14T13:11:57;24.90;99.90
16114;DHT22;8161;-33.910;151.156;2023-12-14T13:14:25;25.00;99.90
16114;DHT22;8161;-33.910;151.156;2023-12-14T13:16:52;24.90;99.90
16114;DHT22;8161;-33.910;151.156;2023-12-14T13:19:19;25.00;99.90
16114;DHT22;8161;-33.910;151.156;2023-12-14T13:21:47;25.00;99.90
16114;DHT22;8161;-33.910;151.156;2023-12-14T13:24:14;25.00;99.90
16114;DHT22;8161;-33.910;151.156;2023-12-14T13:26:41;25.20;99.90
16114;DHT22;8161;-33.910;151.156;2023-12-14T13:29:12;25.30;99.90
16114;DHT22;8161;-33.910;151.156;2023-12-14T13:31:39;25.00;99.90
16114;DHT22;8161;-33.910;151.156;2023-12-14T13:34:06;24.90;99.90
16114;DHT22;8161;-33.910;151.156;2023-12-14T13:39:01;24.90;99.90
16114;DHT22;8161;-33.910;151.156;2023-12-14T13:41:31;24.80;99.90
16114;DHT22;8161;-33.910;151.156;2023-12-14T13:44:01;24.80;99.90
16114;DHT22;8161;-33.910;151.156;2023-12-14T13:46:28;24.90;99.90
16114;DHT22;8161;-33.910;151.156;2023-12-14T13:51:23;24.80;99.90
16114;DHT22;8161;-33.910;151.156;2023-12-14T13:56:17;24.90;99.90
16114;DHT22;8161;-33.910;151.156;2023-12-14T13:58:44;24.80;99.90
16114;DHT22;8161;-33.910;151.156;2023-12-14T14:01:12;25.00;99.90
16114;DHT22;8161;-33.910;151.156;2023-12-14T14:03:42;24.80;99.90
16114;DHT22;8161;-33.910;151.156;2023-12-14T14:06:10;25.20;99.90
16114;DHT22;8161;-33.910;151.156;2023-12-14T14:08:38;25.20;99.90
16114;DHT22;8161;-33.910;151.156;2023-12-14T14:11:05;24.60;99.90
16114;DHT22;8161;-33.910;151.156;2023-12-14T14:25:53;24.70;99.90
16114;DHT22;8161;-33.910;151.156;2023-12-14T14:28:21;24.90;99.90
16114;DHT22;8161;-33.910;151.156;2023-12-14T14:30:49;24.70;99.90
16114;DHT22;8161;-33.910;151.156;2023-12-14T14:33:16;24.70;99.90
16114;DHT22;8161;-33.910;151.156;2023-12-14T14:35:45;24.20;99.90
16114;DHT22;8161;-33.910;151.156;2023-12-14T14:40:43;24.50;99.90
16114;DHT22;8161;-33.910;151.156;2023-12-14T14:43:11;24.40;99.90
16114;DHT22;8161;-33.910;151.156;2023-12-14T14:45:39;24.20;99.90
16114;DHT22;8161;-33.910;151.156;2023-12-14T14:48:06;24.60;99.90
16114;DHT22;8161;-33.910;151.156;2023-12-14T14:50:35;24.40;99.90
16114;DHT22;8161;-33.910;151.156;2023-12-14T14:53:02;24.50;99.90
16114;DHT22;8161;-33.910;151.156;2023-12-14T14:55:30;24.40;99.90
16114;DHT22;8161;-33.910;151.156;2023-12-14T15:00:26;24.20;99.90
16114;DHT22;8161;-33.910;151.156;2023-12-14T15:02:53;24.40;99.90
16114;DHT22;8161;-33.910;151.156;2023-12-14T15:05:21;24.30;99.90
16114;DHT22;8161;-33.910;151.156;2023-12-14T15:07:48;24.40;99.90
16114;DHT22;8161;-33.910;151.156;2023-12-14T15:10:16;24.10;99.90
16114;DHT22;8161;-33.910;151.156;2023-12-14T15:12:43;24.30;99.90
16114;DHT22;8161;-33.910;151.156;2023-12-14T15:15:11;24.20;99.90
16114;DHT22;8161;-33.910;151.156;2023-12-14T15:20:05;24.10;99.90
16114;DHT22;8161;-33.910;151.156;2023-12-14T15:22:34;24.20;99.90
16114;DHT22;8161;-33.910;151.156;2023-12-14T15:25:01;24.10;99.90
16114;DHT22;8161;-33.910;151.156;2023-12-14T15:27:30;24.20;99.90
16114;DHT22;8161;-33.910;151.156;2023-12-14T15:29:59;24.20;99.90
16114;DHT22;8161;-33.910;151.156;2023-12-14T15:32:27;24.00;99.90
16114;DHT22;8161;-33.910;151.156;2023-12-14T15:34:54;24.20;99.90
16114;DHT22;8161;-33.910;151.156;2023-12-14T15:37:24;24.50;99.90
16114;DHT22;8161;-33.910;151.156;2023-12-14T15:42:20;24.20;99.90
16114;DHT22;8161;-33.910;151.156;2023-12-14T15:44:47;24.20;99.90
16114;DHT22;8161;-33.910;151.156;2023-12-14T15:47:15;24.00;99.90
16114;DHT22;8161;-33.910;151.156;2023-12-14T15:57:04;24.10;99.90
16114;DHT22;8161;-33.910;151.156;2023-12-14T15:59:31;24.00;99.90
16114;DHT22;8161;-33.910;151.156;2023-12-14T16:01:58;24.40;99.90
16114;DHT22;8161;-33.910;151.156;2023-12-14T16:04:26;24.20;99.90
16114;DHT22;8161;-33.910;151.156;2023-12-14T16:06:53;24.20;99.90
16114;DHT22;8161;-33.910;151.156;2023-12-14T16:14:16;24.10;99.90
16114;DHT22;8161;-33.910;151.156;2023-12-14T16:16:46;24.10;99.90
16114;DHT22;8161;-33.910;151.156;2023-12-14T16:19:13;24.10;99.90
16114;DHT22;8161;-33.910;151.156;2023-12-14T16:26:35;24.40;99.90
16114;DHT22;8161;-33.910;151.156;2023-12-14T16:29:05;24.30;99.90
16114;DHT22;8161;-33.910;151.156;2023-12-14T16:31:32;24.50;99.90
16114;DHT22;8161;-33.910;151.156;2023-12-14T16:36:27;24.30;99.90
16114;DHT22;8161;-33.910;151.156;2023-12-14T16:38:54;24.60;99.90
16114;DHT22;8161;-33.910;151.156;2023-12-14T16:46:18;24.50;99.90
16114;DHT22;8161;-33.910;151.156;2023-12-14T16:48:46;24.50;99.90
16114;DHT22;8161;-33.910;151.156;2023-12-14T16:54:03;24.50;99.90
16114;DHT22;8161;-33.910;151.156;2023-12-14T16:56:32;24.40;99.90
16114;DHT22;8161;-33.910;151.156;2023-12-14T16:59:00;24.40;99.90
16114;DHT22;8161;-33.910;151.156;2023-12-14T17:03:55;24.50;99.90
16114;DHT22;8161;-33.910;151.156;2023-12-14T17:06:32;24.10;99.90
16114;DHT22;8161;-33.910;151.156;2023-12-14T17:09:03;24.20;99.90
16114;DHT22;8161;-33.910;151.156;2023-12-14T17:11:31;24.70;99.90
16114;DHT22;8161;-33.910;151.156;2023-12-14T17:13:58;24.90;99.90
16114;DHT22;8161;-33.910;151.156;2023-12-14T17:16:25;24.40;99.90
16114;DHT22;8161;-33.910;151.156;2023-12-14T17:18:52;24.30;99.90
16114;DHT22;8161;-33.910;151.156;2023-12-14T17:21:27;24.20;99.90
16114;DHT22;8161;-33.910;151.156;2023-12-14T17:23:56;24.60;99.90
16114;DHT22;8161;-33.910;151.156;2023-12-14T17:26:27;24.40;99.90
16114;DHT22;8161;-33.910;151.156;2023-12-14T17:28:55;24.40;99.90
16114;DHT22;8161;-33.910;151.156;2023-12-14T17:31:24;24.50;99.90
16114;DHT22;8161;-33.910;151.156;2023-12-14T17:33:51;24.40;99.90
16114;DHT22;8161;-33.910;151.156;2023-12-14T17:36:19;24.90;99.90
16114;DHT22;8161;-33.910;151.156;2023-12-14T17:43:43;24.20;99.90
16114;DHT22;8161;-33.910;151.156;2023-12-14T17:46:14;24.40;99.90
16114;DHT22;8161;-33.910;151.156;2023-12-14T17:48:42;24.20;99.90
16114;DHT22;8161;-33.910;151.156;2023-12-14T17:53:36;24.60;99.90
16114;DHT22;8161;-33.910;151.156;2023-12-14T17:56:08;24.20;99.90
16114;DHT22;8161;-33.910;151.156;2023-12-14T17:58:35;24.40;99.90
16114;DHT22;8161;-33.910;151.156;2023-12-14T18:01:02;24.50;99.90
16114;DHT22;8161;-33.910;151.156;2023-12-14T18:03:30;24.50;99.90
16114;DHT22;8161;-33.910;151.156;2023-12-14T18:05:59;24.30;99.90
16114;DHT22;8161;-33.910;151.156;2023-12-14T18:08:27;24.40;99.90
16114;DHT22;8161;-33.910;151.156;2023-12-14T18:13:23;24.40;99.90
16114;DHT22;8161;-33.910;151.156;2023-12-14T18:18:19;24.20;99.90
16114;DHT22;8161;-33.910;151.156;2023-12-14T18:20:48;24.20;99.90
16114;DHT22;8161;-33.910;151.156;2023-12-14T18:23:16;24.20;99.90
16114;DHT22;8161;-33.910;151.156;2023-12-14T18:25:43;24.20;99.90
16114;DHT22;8161;-33.910;151.156;2023-12-14T18:28:13;24.30;99.90
16114;DHT22;8161;-33.910;151.156;2023-12-14T18:30:44;24.20;99.90
16114;DHT22;8161;-33.910;151.156;2023-12-14T18:33:11;24.20;99.90
16114;DHT22;8161;-33.910;151.156;2023-12-14T18:35:39;24.20;99.90
16114;DHT22;8161;-33.910;151.156;2023-12-14T18:38:06;24.30;99.90
16114;DHT22;8161;-33.910;151.156;2023-12-14T18:43:01;24.10;99.90
16114;DHT22;8161;-33.910;151.156;2023-12-14T18:45:28;24.20;99.90
16114;DHT22;8161;-33.910;151.156;2023-12-14T18:47:56;24.00;99.90
16114;DHT22;8161;-33.910;151.156;2023-12-14T18:52:50;23.90;99.90
16114;DHT22;8161;-33.910;151.156;2023-12-14T18:55:23;24.10;99.90
16114;DHT22;8161;-33.910;151.156;2023-12-14T18:57:50;24.20;99.90
16114;DHT22;8161;-33.910;151.156;2023-12-14T19:00:21;24.20;99.90
16114;DHT22;8161;-33.910;151.156;2023-12-14T19:02:49;24.00;99.90
16114;DHT22;8161;-33.910;151.156;2023-12-14T19:05:16;24.00;99.90
16114;DHT22;8161;-33.910;151.156;2023-12-14T19:10:14;23.90;99.90
16114;DHT22;8161;-33.910;151.156;2023-12-14T19:15:09;23.90;99.90
16114;DHT22;8161;-33.910;151.156;2023-12-14T19:17:36;23.70;99.90
16114;DHT22;8161;-33.910;151.156;2023-12-14T19:20:13;24.10;99.90
16114;DHT22;8161;-33.910;151.156;2023-12-14T19:22:40;24.00;99.90
16114;DHT22;8161;-33.910;151.156;2023-12-14T19:25:09;23.90;99.90
16114;DHT22;8161;-33.910;151.156;2023-12-14T19:27:38;23.90;99.90
16114;DHT22;8161;-33.910;151.156;2023-12-14T19:30:07;24.00;99.90
16114;DHT22;8161;-33.910;151.156;2023-12-14T19:37:33;24.10;99.90
16114;DHT22;8161;-33.910;151.156;2023-12-14T19:40:01;24.00;99.90
16114;DHT22;8161;-33.910;151.156;2023-12-14T19:42:29;24.00;99.90
16114;DHT22;8161;-33.910;151.156;2023-12-14T19:45:00;24.10;99.90
16114;DHT22;8161;-33.910;151.156;2023-12-14T19:47:27;24.10;99.90
16114;DHT22;8161;-33.910;151.156;2023-12-14T19:49:54;24.20;99.90
16114;DHT22;8161;-33.910;151.156;2023-12-14T19:52:26;24.00;99.90
16114;DHT22;8161;-33.910;151.156;2023-12-14T19:54:53;24.10;99.90
16114;DHT22;8161;-33.910;151.156;2023-12-14T19:57:21;24.20;99.90
16114;DHT22;8161;-33.910;151.156;2023-12-14T19:59:48;23.90;99.90
16114;DHT22;8161;-33.910;151.156;2023-12-14T20:02:16;24.30;99.90
16114;DHT22;8161;-33.910;151.156;2023-12-14T20:04:43;23.90;99.90
16114;DHT22;8161;-33.910;151.156;2023-12-14T20:07:10;24.30;99.90
16114;DHT22;8161;-33.910;151.156;2023-12-14T20:09:38;24.20;99.90
16114;DHT22;8161;-33.910;151.156;2023-12-14T20:12:11;24.40;99.90
16114;DHT22;8161;-33.910;151.156;2023-12-14T20:14:38;24.40;99.90
16114;DHT22;8161;-33.910;151.156;2023-12-14T20:17:06;24.30;99.90
16114;DHT22;8161;-33.910;151.156;2023-12-14T20:24:30;24.60;99.90
16114;DHT22;8161;-33.910;151.156;2023-12-14T20:26:58;24.30;99.90
16114;DHT22;8161;-33.910;151.156;2023-12-14T20:29:28;24.60;99.90
16114;DHT22;8161;-33.910;151.156;2023-12-14T20:31:58;24.70;99.90
16114;DHT22;8161;-33.910;151.156;2023-12-14T20:34:25;24.30;99.90
16114;DHT22;8161;-33.910;151.156;2023-12-14T20:36:53;24.70;99.90
16114;DHT22;8161;-33.910;151.156;2023-12-14T20:39:20;24.70;99.90
16114;DHT22;8161;-33.910;151.156;2023-12-14T20:44:14;24.90;99.90
16114;DHT22;8161;-33.910;151.156;2023-12-14T20:54:06;25.10;99.90